createdAt,value
2023-03-26T00:01:33.707Z,10.98
2023-03-26T00:04:01.165Z,11.06
2023-03-26T00:06:31.821Z,11.12
2023-03-26T00:08:58.982Z,11.15
2023-03-26T00:11:29.001Z,11.26
2023-03-26T00:13:57.781Z,11.21
2023-03-26T00:16:29.100Z,11.20
2023-03-26T00:18:57.700Z,11.10
2023-03-26T00:21:28.007Z,11.04
2023-03-26T00:24:06.101Z,11.13
2023-03-26T00:26:38.416Z,11.17
2023-03-26T00:29:06.732Z,11.15
2023-03-26T00:31:34.541Z,11.22
2023-03-26T00:34:03.760Z,10.96
2023-03-26T00:36:30.800Z,11.02
2023-03-26T00:38:57.588Z,11.20
2023-03-26T00:41:26.839Z,11.15
2023-03-26T00:43:58.006Z,11.12
2023-03-26T00:46:26.789Z,11.03
2023-03-26T00:48:53.709Z,10.92
2023-03-26T00:51:21.750Z,11.07
2023-03-26T00:53:50.427Z,10.89
2023-03-26T00:56:17.864Z,10.98
2023-03-26T00:58:46.080Z,10.93
2023-03-26T01:01:17.318Z,10.99
2023-03-26T01:03:57.127Z,10.94
2023-03-26T01:06:36.029Z,10.97
2023-03-26T01:09:14.353Z,10.87
2023-03-26T01:11:41.437Z,10.83
2023-03-26T01:14:19.183Z,10.70
2023-03-26T01:16:54.811Z,10.74
2023-03-26T01:19:44.668Z,10.66
2023-03-26T01:22:17.485Z,10.62
2023-03-26T01:24:46.152Z,10.66
2023-03-26T01:27:36.002Z,10.55
2023-03-26T01:30:42.284Z,10.41
2023-03-26T01:33:36.529Z,10.35
2023-03-26T01:36:16.358Z,10.44
2023-03-26T01:39:38.936Z,10.46
2023-03-26T01:42:21.803Z,10.41
2023-03-26T01:45:00.108Z,10.45
2023-03-26T01:47:27.869Z,10.29
2023-03-26T01:49:54.724Z,10.35
2023-03-26T01:52:26.073Z,10.47
2023-03-26T01:54:57.564Z,10.43
2023-03-26T01:57:57.902Z,10.47
2023-03-26T02:00:37.509Z,10.53
2023-03-26T02:03:20.338Z,10.51
2023-03-26T02:06:07.790Z,10.62
2023-03-26T02:08:41.258Z,10.58
2023-03-26T02:11:13.208Z,10.70
2023-03-26T02:13:44.003Z,10.80
2023-03-26T02:16:16.423Z,10.81
2023-03-26T02:18:45.718Z,10.75
2023-03-26T02:21:15.407Z,10.89
2023-03-26T02:23:46.613Z,10.85
2023-03-26T02:26:18.061Z,10.86
2023-03-26T02:28:45.430Z,10.83
2023-03-26T02:31:13.859Z,10.86
2023-03-26T02:33:40.944Z,10.81
2023-03-26T02:36:08.650Z,10.88
2023-03-26T02:38:35.692Z,10.77
2023-03-26T02:41:03.662Z,10.83
2023-03-26T02:43:30.710Z,10.77
2023-03-26T02:45:58.317Z,10.81
2023-03-26T02:48:25.381Z,10.68
2023-03-26T02:50:54.284Z,10.80
2023-03-26T02:53:24.286Z,10.72
2023-03-26T02:55:51.194Z,10.64
2023-03-26T02:58:18.099Z,10.64
2023-03-26T03:00:47.162Z,10.75
2023-03-26T03:03:17.158Z,10.71
2023-03-26T03:05:44.270Z,10.59
2023-03-26T03:08:11.211Z,10.72
2023-03-26T03:10:39.478Z,10.71
2023-03-26T03:13:07.704Z,10.69
2023-03-26T03:15:35.107Z,10.52
2023-03-26T03:18:02.648Z,10.55
2023-03-26T03:20:30.388Z,10.66
2023-03-26T03:22:57.293Z,10.68
2023-03-26T03:25:25.920Z,10.58
2023-03-26T03:27:53.898Z,10.55
2023-03-26T03:30:21.033Z,10.65
2023-03-26T03:32:48.201Z,10.46
2023-03-26T03:35:15.203Z,10.64
2023-03-26T03:37:42.246Z,10.57
2023-03-26T03:40:10.915Z,10.54
2023-03-26T03:42:38.510Z,10.44
2023-03-26T03:45:06.592Z,10.65
2023-03-26T03:47:33.418Z,10.54
2023-03-26T03:50:00.306Z,10.66
2023-03-26T03:52:28.129Z,10.52
2023-03-26T03:54:57.638Z,10.68
2023-03-26T03:57:24.437Z,10.56
2023-03-26T03:59:51.233Z,10.61
2023-03-26T04:02:26.614Z,10.53
2023-03-26T04:04:54.341Z,10.37
2023-03-26T04:07:21.218Z,10.60
2023-03-26T04:09:48.047Z,10.63
2023-03-26T04:12:15.377Z,10.58
2023-03-26T04:14:42.714Z,10.57
2023-03-26T04:17:09.625Z,10.35
2023-03-26T04:19:37.405Z,10.41
2023-03-26T04:22:04.235Z,10.54
2023-03-26T04:24:38.294Z,10.54
2023-03-26T04:27:08.685Z,10.55
2023-03-26T04:29:43.126Z,10.53
2023-03-26T04:32:22.702Z,10.50
2023-03-26T04:34:49.580Z,10.50
2023-03-26T04:37:34.289Z,10.33
2023-03-26T04:40:10.483Z,10.50
2023-03-26T04:42:41.583Z,10.43
2023-03-26T04:45:10.913Z,10.50
2023-03-26T04:47:39.589Z,10.55
2023-03-26T04:50:09.408Z,10.52
2023-03-26T04:52:37.501Z,10.51
2023-03-26T04:55:16.895Z,10.41
2023-03-26T04:57:46.516Z,10.46
2023-03-26T05:00:16.291Z,10.46
2023-03-26T05:02:43.627Z,10.41
2023-03-26T05:05:11.797Z,10.38
2023-03-26T05:07:38.673Z,10.47
2023-03-26T05:10:06.666Z,10.33
2023-03-26T05:12:33.581Z,10.42
2023-03-26T05:15:00.796Z,10.43
2023-03-26T05:17:30.984Z,10.44
2023-03-26T05:19:57.997Z,10.44
2023-03-26T05:22:24.840Z,10.49
2023-03-26T05:24:52.161Z,10.45
2023-03-26T05:27:22.163Z,10.48
2023-03-26T05:29:49.041Z,10.48
2023-03-26T05:32:15.907Z,10.34
2023-03-26T05:34:42.743Z,10.37
2023-03-26T05:37:09.554Z,10.36
2023-03-26T05:39:36.362Z,10.41
2023-03-26T05:42:03.978Z,10.40
2023-03-26T05:44:30.920Z,10.41
2023-03-26T05:46:57.726Z,10.41
2023-03-26T05:49:24.527Z,10.41
2023-03-26T05:51:52.392Z,10.31
2023-03-26T05:54:20.083Z,10.30
2023-03-26T05:56:47.013Z,10.40
2023-03-26T05:59:16.861Z,10.43
2023-03-26T06:01:44.945Z,10.41
2023-03-26T06:04:17.428Z,10.42
2023-03-26T06:06:44.935Z,10.36
2023-03-26T06:09:14.675Z,10.36
2023-03-26T06:11:41.854Z,10.02
2023-03-26T06:14:08.683Z,10.18
2023-03-26T06:16:35.564Z,10.26
2023-03-26T06:19:02.446Z,10.24
2023-03-26T06:21:29.707Z,10.29
2023-03-26T06:23:56.620Z,10.15
2023-03-26T06:26:23.526Z,10.00
2023-03-26T06:28:50.351Z,10.05
2023-03-26T06:31:19.161Z,10.12
2023-03-26T06:33:46.936Z,10.06
2023-03-26T06:36:13.897Z,10.21
2023-03-26T06:38:40.812Z,10.28
2023-03-26T06:41:07.780Z,10.18
2023-03-26T06:43:36.140Z,10.35
2023-03-26T06:46:04.442Z,10.35
2023-03-26T06:48:31.679Z,10.25
2023-03-26T06:50:58.493Z,10.17
2023-03-26T06:53:25.565Z,10.40
2023-03-26T06:55:54.252Z,10.37
2023-03-26T06:58:21.836Z,10.36
2023-03-26T07:00:48.848Z,10.34
2023-03-26T07:03:17.238Z,10.44
2023-03-26T07:05:44.132Z,10.49
2023-03-26T07:08:11.020Z,10.51
2023-03-26T07:10:37.821Z,10.44
2023-03-26T07:13:04.618Z,10.50
2023-03-26T07:15:31.480Z,10.51
2023-03-26T07:17:58.487Z,10.58
2023-03-26T07:20:25.708Z,10.52
2023-03-26T07:22:53.054Z,10.60
2023-03-26T07:25:20.516Z,10.53
2023-03-26T07:28:12.306Z,10.63
2023-03-26T07:31:01.281Z,10.56
2023-03-26T07:34:13.224Z,10.62
2023-03-26T07:36:57.809Z,10.58
2023-03-26T07:39:52.619Z,10.65
2023-03-26T07:42:22.138Z,10.67
2023-03-26T07:45:34.108Z,10.59
2023-03-26T07:48:02.132Z,10.67
2023-03-26T07:50:29.055Z,10.54
2023-03-26T07:52:56.179Z,10.72
2023-03-26T07:55:23.259Z,10.62
2023-03-26T07:58:15.581Z,10.71
2023-03-26T08:00:51.424Z,10.71
2023-03-26T08:03:53.536Z,10.73
2023-03-26T08:06:31.521Z,10.71
2023-03-26T08:09:35.629Z,10.68
2023-03-26T08:12:27.347Z,10.73
2023-03-26T08:15:29.150Z,10.59
2023-03-26T08:18:35.646Z,10.69
2023-03-26T08:21:27.237Z,10.80
2023-03-26T08:24:26.831Z,10.80
2023-03-26T08:27:32.341Z,10.78
2023-03-26T08:30:26.602Z,10.78
2023-03-26T08:32:58.275Z,10.77
2023-03-26T08:35:27.565Z,10.77
2023-03-26T08:37:54.754Z,10.58
2023-03-26T08:40:52.561Z,10.78
2023-03-26T08:43:41.114Z,10.81
2023-03-26T08:46:43.108Z,10.77
2023-03-26T08:49:53.211Z,10.80
2023-03-26T08:53:03.362Z,10.82
2023-03-26T08:55:51.809Z,10.78
2023-03-26T08:58:56.062Z,10.81
2023-03-26T09:01:53.202Z,10.81
2023-03-26T09:04:39.468Z,10.82
2023-03-26T09:07:36.516Z,10.84
2023-03-26T09:10:32.245Z,10.87
2023-03-26T09:13:34.753Z,10.90
2023-03-26T09:16:32.506Z,10.92
2023-03-26T09:19:41.250Z,10.91
2023-03-26T09:22:42.735Z,10.95
2023-03-26T09:25:30.484Z,10.80
2023-03-26T09:28:25.747Z,10.69
2023-03-26T09:31:15.177Z,10.68
2023-03-26T09:34:24.963Z,10.78
2023-03-26T09:37:18.766Z,10.73
2023-03-26T09:39:56.059Z,10.89
2023-03-26T09:42:49.810Z,10.61
2023-03-26T09:46:15.554Z,10.86
2023-03-26T09:49:22.745Z,11.06
2023-03-26T09:52:08.946Z,11.04
2023-03-26T09:55:02.535Z,11.15
2023-03-26T09:57:53.774Z,11.04
2023-03-26T10:01:05.506Z,11.19
2023-03-26T10:03:56.420Z,11.26
2023-03-26T10:06:39.630Z,11.40
2023-03-26T10:09:18.622Z,11.38
2023-03-26T10:12:09.429Z,11.52
2023-03-26T10:14:52.733Z,11.27
2023-03-26T10:17:48.885Z,11.64
2023-03-26T10:21:01.684Z,11.74
2023-03-26T10:23:46.203Z,11.70
2023-03-26T10:27:10.037Z,11.68
2023-03-26T10:30:18.173Z,11.62
2023-03-26T10:33:15.386Z,11.61
2023-03-26T10:36:32.835Z,11.64
2023-03-26T10:39:37.069Z,11.81
2023-03-26T10:42:43.854Z,12.07
2023-03-26T10:45:46.660Z,12.13
2023-03-26T10:49:06.164Z,12.03
2023-03-26T10:51:41.216Z,12.16
2023-03-26T10:54:23.257Z,12.22
2023-03-26T10:56:52.301Z,12.27
2023-03-26T10:59:19.524Z,12.22
2023-03-26T11:02:29.739Z,12.34
2023-03-26T11:05:33.254Z,12.27
2023-03-26T11:08:47.934Z,12.32
2023-03-26T11:11:26.012Z,12.39
2023-03-26T11:14:00.667Z,12.45
2023-03-26T11:16:56.937Z,12.46
2023-03-26T11:19:53.201Z,12.52
2023-03-26T11:22:48.606Z,12.37
2023-03-26T11:25:52.758Z,12.61
2023-03-26T11:29:02.961Z,12.71
2023-03-26T11:32:06.154Z,12.71
2023-03-26T11:34:52.609Z,12.74
2023-03-26T11:37:35.393Z,12.78
2023-03-26T11:40:12.766Z,12.94
2023-03-26T11:42:41.211Z,12.99
2023-03-26T11:45:21.586Z,12.87
2023-03-26T11:48:03.978Z,13.05
2023-03-26T11:50:36.193Z,13.09
2023-03-26T11:53:12.936Z,13.08
2023-03-26T11:55:46.715Z,13.13
2023-03-26T11:58:33.848Z,13.51
2023-03-26T12:01:06.522Z,13.40
2023-03-26T12:03:33.812Z,13.31
2023-03-26T12:06:02.725Z,13.35
2023-03-26T12:08:39.391Z,13.35
2023-03-26T12:11:10.995Z,13.43
2023-03-26T12:13:43.328Z,13.71
2023-03-26T12:16:18.918Z,13.58
2023-03-26T12:18:47.575Z,13.55
2023-03-26T12:21:18.943Z,13.65
2023-03-26T12:23:59.839Z,13.60
2023-03-26T12:26:39.581Z,13.65
2023-03-26T12:29:20.660Z,13.54
2023-03-26T12:32:15.280Z,13.69
2023-03-26T12:34:42.186Z,13.49
2023-03-26T12:37:38.523Z,13.63
2023-03-26T12:40:27.902Z,13.75
2023-03-26T12:44:50.757Z,13.65
2023-03-26T12:47:46.216Z,13.66
2023-03-26T12:48:43.094Z,13.78
2023-03-26T12:51:29.438Z,13.89
2023-03-26T12:54:09.904Z,13.87
2023-03-26T12:56:43.262Z,14.11
2023-03-26T12:59:37.080Z,14.11
2023-03-26T13:02:41.242Z,14.14
2023-03-26T13:05:54.597Z,14.07
2023-03-26T13:08:24.015Z,14.14
2023-03-26T13:11:17.929Z,14.21
2023-03-26T13:14:14.230Z,14.25
2023-03-26T13:17:00.010Z,14.22
2023-03-26T13:20:12.092Z,14.35
2023-03-26T13:22:55.346Z,14.37
2023-03-26T13:25:42.615Z,14.35
2023-03-26T13:28:37.573Z,14.28
2023-03-26T13:31:22.411Z,14.25
2023-03-26T13:34:08.780Z,14.34
2023-03-26T13:36:58.576Z,14.32
2023-03-26T13:40:10.263Z,14.34
2023-03-26T13:43:04.972Z,14.34
2023-03-26T13:46:21.259Z,14.39
2023-03-26T13:48:59.193Z,14.36
2023-03-26T13:51:49.093Z,14.37
2023-03-26T13:54:18.680Z,14.36
2023-03-26T13:57:04.863Z,14.34
2023-03-26T13:59:40.637Z,14.36
2023-03-26T14:02:23.163Z,14.37
2023-03-26T14:04:56.893Z,14.14
2023-03-26T14:07:53.370Z,14.33
2023-03-26T14:10:25.807Z,14.23
2023-03-26T14:13:24.239Z,14.19
2023-03-26T14:16:01.390Z,14.03
2023-03-26T14:18:56.825Z,14.23
2023-03-26T14:21:55.851Z,14.26
2023-03-26T14:24:48.503Z,14.25
2023-03-26T14:27:54.355Z,13.92
2023-03-26T14:30:56.455Z,13.95
2023-03-26T14:33:53.539Z,13.82
2023-03-26T14:37:07.787Z,13.90
2023-03-26T14:39:37.406Z,13.86
2023-03-26T14:42:32.757Z,13.67
2023-03-26T14:45:26.218Z,13.52
2023-03-26T14:48:57.353Z,13.24
2023-03-26T14:51:35.522Z,12.99
2023-03-26T14:54:17.283Z,12.86
2023-03-26T14:56:49.739Z,12.72
2023-03-26T15:00:15.508Z,12.53
2023-03-26T15:03:09.871Z,12.39
2023-03-26T15:06:07.575Z,12.25
2023-03-26T15:08:56.217Z,12.28
2023-03-26T15:11:40.951Z,11.97
2023-03-26T15:14:48.893Z,12.13
2023-03-26T15:17:40.992Z,12.13
2023-03-26T15:20:32.645Z,12.18
2023-03-26T15:23:27.046Z,12.12
2023-03-26T15:26:30.961Z,12.11
2023-03-26T15:29:48.089Z,12.09
2023-03-26T15:33:12.806Z,12.07
2023-03-26T15:36:00.441Z,12.04
2023-03-26T15:39:11.644Z,12.10
2023-03-26T15:42:15.497Z,12.06
2023-03-26T15:45:15.014Z,12.01
2023-03-26T15:47:56.033Z,11.91
2023-03-26T15:50:38.080Z,11.90
2023-03-26T15:53:45.125Z,11.84
2023-03-26T15:56:40.282Z,11.76
2023-03-26T15:59:23.359Z,11.56
2023-03-26T16:02:11.979Z,11.41
2023-03-26T16:05:21.242Z,11.40
2023-03-26T16:08:47.126Z,11.28
2023-03-26T16:11:15.422Z,11.29
2023-03-26T16:13:49.875Z,11.30
2023-03-26T16:16:23.242Z,11.28
2023-03-26T16:18:58.415Z,11.28
2023-03-26T16:21:36.595Z,11.22
2023-03-26T16:24:03.341Z,11.19
2023-03-26T16:27:00.492Z,11.23
2023-03-26T16:29:31.365Z,11.15
2023-03-26T16:32:10.378Z,11.21
2023-03-26T16:34:41.946Z,11.18
2023-03-26T16:37:36.837Z,11.24
2023-03-26T16:40:22.223Z,11.20
2023-03-26T16:43:10.260Z,11.17
2023-03-26T16:46:03.382Z,10.84
2023-03-26T16:48:41.585Z,10.91
2023-03-26T16:51:39.080Z,10.67
2023-03-26T16:54:34.613Z,10.67
2023-03-26T16:57:27.905Z,10.66
2023-03-26T17:00:23.513Z,10.71
2023-03-26T17:03:28.240Z,10.70
2023-03-26T17:05:56.530Z,10.60
2023-03-26T17:09:02.797Z,10.63
2023-03-26T17:12:01.190Z,10.62
2023-03-26T17:15:12.687Z,10.56
2023-03-26T17:18:02.269Z,10.55
2023-03-26T17:21:13.939Z,10.60
2023-03-26T17:24:15.656Z,10.58
2023-03-26T17:27:24.919Z,10.42
2023-03-26T17:30:04.989Z,10.41
2023-03-26T17:32:58.840Z,10.41
2023-03-26T17:35:45.147Z,10.46
2023-03-26T17:38:17.684Z,10.35
2023-03-26T17:40:55.296Z,10.35
2023-03-26T17:43:51.633Z,10.20
2023-03-26T17:46:37.977Z,10.13
2023-03-26T17:49:21.318Z,10.29
2023-03-26T17:52:11.857Z,10.27
2023-03-26T17:54:45.234Z,10.33
2023-03-26T17:57:23.588Z,10.27
2023-03-26T17:59:56.480Z,10.29
2023-03-26T18:02:42.066Z,10.28
2023-03-26T18:05:15.448Z,10.26
2023-03-26T18:08:18.727Z,10.22
2023-03-26T18:11:23.149Z,10.17
2023-03-26T18:13:55.505Z,10.17
2023-03-26T18:16:31.668Z,10.19
2023-03-26T18:19:01.561Z,10.17
2023-03-26T18:21:37.060Z,10.29
2023-03-26T18:24:07.764Z,10.23
2023-03-26T18:26:47.130Z,10.17
2023-03-26T18:29:25.333Z,10.18
2023-03-26T18:32:00.391Z,10.35
2023-03-26T18:34:32.009Z,10.42
2023-03-26T18:37:01.621Z,10.43
2023-03-26T18:39:28.676Z,10.35
2023-03-26T18:41:55.922Z,10.40
2023-03-26T18:44:22.806Z,10.40
2023-03-26T18:46:54.756Z,10.12
2023-03-26T18:49:23.936Z,10.25
2023-03-26T18:51:57.326Z,10.03
2023-03-26T18:54:30.919Z,10.17
2023-03-26T18:56:58.865Z,10.25
2023-03-26T18:59:31.813Z,10.17
2023-03-26T19:02:13.931Z,10.22
2023-03-26T19:04:46.146Z,10.29
2023-03-26T19:07:16.853Z,10.28
2023-03-26T19:09:44.712Z,10.36
2023-03-26T19:12:32.971Z,10.42
2023-03-26T19:15:16.363Z,10.18
2023-03-26T19:17:51.326Z,10.44
2023-03-26T19:20:26.371Z,10.54
2023-03-26T19:22:55.192Z,10.35
2023-03-26T19:25:42.104Z,10.48
2023-03-26T19:28:32.733Z,10.48
2023-03-26T19:31:12.413Z,10.42
2023-03-26T19:33:44.385Z,10.22
2023-03-26T19:36:20.002Z,10.34
2023-03-26T19:38:57.459Z,10.22
2023-03-26T19:41:36.751Z,10.32
2023-03-26T19:44:25.860Z,10.37
2023-03-26T19:47:01.793Z,10.29
2023-03-26T19:49:42.225Z,10.22
2023-03-26T19:52:16.634Z,10.31
2023-03-26T19:55:22.436Z,10.28
2023-03-26T19:57:49.278Z,10.18
2023-03-26T20:00:16.379Z,10.19
2023-03-26T20:02:46.412Z,9.92
2023-03-26T20:05:23.721Z,9.92
2023-03-26T20:07:51.294Z,9.93
2023-03-26T20:10:18.843Z,9.95
2023-03-26T20:12:45.740Z,9.89
2023-03-26T20:15:25.276Z,9.89
2023-03-26T20:17:55.546Z,9.74
2023-03-26T20:20:27.568Z,9.78
2023-03-26T20:22:54.963Z,9.80
2023-03-26T20:25:31.198Z,9.83
2023-03-26T20:27:59.032Z,9.77
2023-03-26T20:30:37.571Z,9.71
2023-03-26T20:33:12.027Z,9.61
2023-03-26T20:35:40.570Z,9.77
2023-03-26T20:38:09.589Z,9.86
2023-03-26T20:40:37.342Z,9.89
2023-03-26T20:43:04.404Z,9.87
2023-03-26T20:45:31.207Z,9.81
2023-03-26T20:47:59.383Z,9.63
2023-03-26T20:50:26.665Z,9.87
2023-03-26T20:52:54.309Z,9.95
2023-03-26T20:55:21.477Z,9.77
2023-03-26T20:57:48.881Z,9.71
2023-03-26T21:00:26.852Z,9.74
2023-03-26T21:02:56.463Z,9.71
2023-03-26T21:05:27.046Z,9.60
2023-03-26T21:07:57.434Z,9.62
2023-03-26T21:10:27.198Z,9.59
2023-03-26T21:13:04.346Z,9.78
2023-03-26T21:15:31.836Z,9.74
2023-03-26T21:17:59.259Z,9.67
2023-03-26T21:20:32.646Z,9.70
2023-03-26T21:23:23.165Z,9.81
2023-03-26T21:26:06.278Z,9.82
2023-03-26T21:28:48.833Z,9.80
2023-03-26T21:31:28.458Z,9.70
2023-03-26T21:33:56.793Z,9.72
2023-03-26T21:36:24.050Z,9.62
2023-03-26T21:38:54.621Z,9.84
2023-03-26T21:41:24.371Z,9.76
2023-03-26T21:43:51.750Z,9.59
2023-03-26T21:46:19.031Z,9.53
2023-03-26T21:48:46.185Z,9.47
2023-03-26T21:51:14.859Z,9.47
2023-03-26T21:53:43.011Z,9.54
2023-03-26T21:56:45.959Z,9.43
2023-03-26T21:59:26.683Z,9.49
2023-03-26T22:02:17.803Z,9.39
2023-03-26T22:05:01.481Z,9.51
2023-03-26T22:07:58.858Z,9.50
2023-03-26T22:10:25.843Z,9.46
2023-03-26T22:12:52.742Z,9.57
2023-03-26T22:15:19.974Z,9.59
2023-03-26T22:17:53.903Z,9.75
2023-03-26T22:20:24.892Z,9.79
2023-03-26T22:22:53.371Z,9.62
2023-03-26T22:25:22.172Z,9.69
2023-03-26T22:27:51.220Z,9.73
2023-03-26T22:30:20.346Z,9.53
2023-03-26T22:32:47.466Z,9.68
2023-03-26T22:35:14.683Z,9.63
2023-03-26T22:37:41.656Z,9.51
2023-03-26T22:40:12.942Z,9.47
2023-03-26T22:42:41.300Z,9.50
2023-03-26T22:45:11.881Z,9.48
2023-03-26T22:47:40.004Z,9.58
2023-03-26T22:50:09.107Z,9.54
2023-03-26T22:52:36.965Z,9.39
2023-03-26T22:55:05.293Z,9.55
2023-03-26T22:57:32.188Z,9.58
2023-03-26T23:00:07.794Z,9.62
2023-03-26T23:02:35.274Z,9.63
2023-03-26T23:05:02.181Z,9.54
2023-03-26T23:07:29.015Z,9.69
2023-03-26T23:09:55.824Z,9.74
2023-03-26T23:12:22.646Z,9.39
2023-03-26T23:14:52.815Z,9.37
2023-03-26T23:17:20.145Z,9.36
2023-03-26T23:19:47.098Z,9.47
2023-03-26T23:22:13.909Z,9.42
2023-03-26T23:24:40.757Z,9.42
2023-03-26T23:27:07.783Z,9.38
2023-03-26T23:29:36.442Z,9.29
2023-03-26T23:32:03.365Z,9.31
2023-03-26T23:34:51.818Z,9.22
2023-03-26T23:37:23.007Z,9.27
2023-03-26T23:39:51.447Z,9.23
2023-03-26T23:42:28.902Z,9.23
2023-03-26T23:44:57.319Z,9.11
2023-03-26T23:47:24.657Z,9.13
2023-03-26T23:49:51.584Z,9.14
2023-03-26T23:52:18.766Z,9.15
2023-03-26T23:54:45.766Z,9.11
2023-03-26T23:57:12.852Z,9.15
2023-03-26T23:59:41.454Z,9.13
